Terminal Aerodrome Forecast
Issued by NWS Spokane, WA

Home | Current Version | Previous Version | Text Only | Print | Product List | Glossary On
Versions: 1 2 3 4 5 6 7 8 9 10 11 12 13 14 15 16 17 18 19 20 21 22 23 24 25
000
FTUS46 KOTX 172320
TAFEAT
TAF
KEAT 172320Z 1800/1824 13005KT P6SM SCT100 BKN120 OVC150
     FM180200 14005KT P6SM VCSH FEW100 BKN150 OVC200
     FM180400 31008KT P6SM VCSH SCT060 BKN080 OVC100
     FM181800 30010G15KT P6SM SCT080 BKN100 BKN120
     FM182200 30014G22KT P6SM SCT100 BKN130=

USA.gov is the U.S. government's official web portal to all federal, state and local government web resources and services.